sensor_id;sensor_type;location;lat;lon;timestamp;pressure;altitude;pressure_sealevel;temperature;humidity
60240;BME280;46102;39.012;-7.064;2023-02-10T00:00:14;99914.81;;;8.80;60.93
60240;BME280;46102;39.012;-7.064;2023-02-10T00:02:15;99914.31;;;8.78;61.19
60240;BME280;46102;39.012;-7.064;2023-02-10T00:04:15;99915.94;;;8.74;61.66
60240;BME280;46102;39.012;-7.064;2023-02-10T00:06:18;99912.91;;;8.70;61.39
60240;BME280;46102;39.012;-7.064;2023-02-10T00:08:19;99912.91;;;8.70;61.96
60240;BME280;46102;39.012;-7.064;2023-02-10T00:10:19;99906.63;;;8.70;61.33
60240;BME280;46102;39.012;-7.064;2023-02-10T00:12:20;99914.53;;;8.66;62.21
60240;BME280;46102;39.012;-7.064;2023-02-10T00:14:21;99916.72;;;8.59;62.33
60240;BME280;46102;39.012;-7.064;2023-02-10T00:16:22;99918.34;;;8.55;62.64
60240;BME280;46102;39.012;-7.064;2023-02-10T00:18:22;99919.47;;;8.54;62.09
60240;BME280;46102;39.012;-7.064;2023-02-10T00:20:23;99916.72;;;8.54;62.54
60240;BME280;46102;39.012;-7.064;2023-02-10T00:22:24;99921.09;;;8.55;62.56
60240;BME280;46102;39.012;-7.064;2023-02-10T00:24:25;99921.91;;;8.50;62.37
60240;BME280;46102;39.012;-7.064;2023-02-10T00:26:26;99916.97;;;8.47;62.69
60240;BME280;46102;39.012;-7.064;2023-02-10T00:28:27;99916.13;;;8.42;63.35
60240;BME280;46102;39.012;-7.064;2023-02-10T00:30:28;99917.25;;;8.41;62.73
60240;BME280;46102;39.012;-7.064;2023-02-10T00:32:29;99907.91;;;8.37;63.33
60240;BME280;46102;39.012;-7.064;2023-02-10T00:34:30;99907.34;;;8.29;63.58
60240;BME280;46102;39.012;-7.064;2023-02-10T00:36:31;99913.06;;;8.28;63.64
60240;BME280;46102;39.012;-7.064;2023-02-10T00:38:32;99921.81;;;8.25;63.39
60240;BME280;46102;39.012;-7.064;2023-02-10T00:40:35;99902.13;;;8.23;63.74
60240;BME280;46102;39.012;-7.064;2023-02-10T00:42:36;99907.31;;;8.24;63.84
60240;BME280;46102;39.012;-7.064;2023-02-10T00:44:37;99905.94;;;8.22;62.62
60240;BME280;46102;39.012;-7.064;2023-02-10T00:46:38;99899.38;;;8.18;62.93
60240;BME280;46102;39.012;-7.064;2023-02-10T00:48:39;99900.75;;;8.15;62.98
60240;BME280;46102;39.012;-7.064;2023-02-10T00:50:39;99903.19;;;8.11;63.52
60240;BME280;46102;39.012;-7.064;2023-02-10T00:52:40;99903.19;;;8.17;63.03
60240;BME280;46102;39.012;-7.064;2023-02-10T00:54:41;99899.91;;;8.14;62.82
60240;BME280;46102;39.012;-7.064;2023-02-10T00:56:43;99895.22;;;8.10;62.98
60240;BME280;46102;39.012;-7.064;2023-02-10T00:58:45;99901.00;;;8.08;62.86
60240;BME280;46102;39.012;-7.064;2023-02-10T01:00:46;99894.13;;;8.06;63.01
60240;BME280;46102;39.012;-7.064;2023-02-10T01:02:47;99899.06;;;8.09;62.92
60240;BME280;46102;39.012;-7.064;2023-02-10T01:04:48;99897.41;;;8.08;63.09
60240;BME280;46102;39.012;-7.064;2023-02-10T01:06:50;99895.47;;;7.98;62.92
60240;BME280;46102;39.012;-7.064;2023-02-10T01:08:51;99890.81;;;7.99;63.09
60240;BME280;46102;39.012;-7.064;2023-02-10T01:11:06;99882.06;;;7.97;63.11
60240;BME280;46102;39.012;-7.064;2023-02-10T01:13:11;99885.34;;;7.99;62.48
60240;BME280;46102;39.012;-7.064;2023-02-10T01:15:12;99886.47;;;7.98;62.38
60240;BME280;46102;39.012;-7.064;2023-02-10T01:17:14;99888.63;;;7.96;62.77
60240;BME280;46102;39.012;-7.064;2023-02-10T01:19:17;99881.00;;;7.98;62.83
60240;BME280;46102;39.012;-7.064;2023-02-10T01:21:19;99891.09;;;7.97;62.32
60240;BME280;46102;39.012;-7.064;2023-02-10T01:23:20;99883.97;;;7.96;62.77
60240;BME280;46102;39.012;-7.064;2023-02-10T01:25:21;99890.56;;;7.95;62.09
60240;BME280;46102;39.012;-7.064;2023-02-10T01:27:24;99889.19;;;7.98;62.13
60240;BME280;46102;39.012;-7.064;2023-02-10T01:29:25;99886.16;;;7.94;62.09
60240;BME280;46102;39.012;-7.064;2023-02-10T01:31:26;99891.06;;;7.92;61.88
60240;BME280;46102;39.012;-7.064;2023-02-10T01:33:27;99882.31;;;7.90;62.20
60240;BME280;46102;39.012;-7.064;2023-02-10T01:35:31;99892.16;;;7.91;62.48
60240;BME280;46102;39.012;-7.064;2023-02-10T01:37:33;99881.25;;;7.91;62.03
60240;BME280;46102;39.012;-7.064;2023-02-10T01:39:35;99886.16;;;7.89;61.86
60240;BME280;46102;39.012;-7.064;2023-02-10T01:41:36;99888.06;;;7.88;62.59
60240;BME280;46102;39.012;-7.064;2023-02-10T01:43:59;99873.03;;;7.86;62.07
60240;BME280;46102;39.012;-7.064;2023-02-10T01:46:00;99877.38;;;7.87;62.24
60240;BME280;46102;39.012;-7.064;2023-02-10T01:48:01;99870.00;;;7.87;62.59
60240;BME280;46102;39.012;-7.064;2023-02-10T01:50:02;99864.28;;;7.84;62.39
60240;BME280;46102;39.012;-7.064;2023-02-10T01:52:07;99872.72;;;7.77;62.88
60240;BME280;46102;39.012;-7.064;2023-02-10T01:54:13;99874.34;;;7.78;62.32
60240;BME280;46102;39.012;-7.064;2023-02-10T01:56:16;99871.63;;;7.78;62.56
60240;BME280;46102;39.012;-7.064;2023-02-10T01:58:21;99861.50;;;7.74;62.46
60240;BME280;46102;39.012;-7.064;2023-02-10T02:00:24;99860.94;;;7.71;62.16
60240;BME280;46102;39.012;-7.064;2023-02-10T02:02:25;99869.13;;;7.71;62.01
60240;BME280;46102;39.012;-7.064;2023-02-10T02:04:27;99864.75;;;7.70;62.19
60240;BME280;46102;39.012;-7.064;2023-02-10T02:06:28;99862.84;;;7.71;62.33
60240;BME280;46102;39.012;-7.064;2023-02-10T02:08:30;99869.66;;;7.68;62.49
60240;BME280;46102;39.012;-7.064;2023-02-10T02:10:47;99872.13;;;7.70;62.33
60240;BME280;46102;39.012;-7.064;2023-02-10T02:13:02;99866.13;;;7.73;62.38
60240;BME280;46102;39.012;-7.064;2023-02-10T02:17:30;99866.38;;;7.66;62.18
60240;BME280;46102;39.012;-7.064;2023-02-10T02:30:02;99861.97;;;7.60;62.03
60240;BME280;46102;39.012;-7.064;2023-02-10T02:34:17;99862.22;;;7.59;61.89
60240;BME280;46102;39.012;-7.064;2023-02-10T02:36:27;99863.88;;;7.60;62.63
60240;BME280;46102;39.012;-7.064;2023-02-10T02:38:30;99858.97;;;7.57;62.85
60240;BME280;46102;39.012;-7.064;2023-02-10T02:40:30;99864.94;;;7.54;62.96
60240;BME280;46102;39.012;-7.064;2023-02-10T02:42:33;99861.41;;;7.53;62.45
60240;BME280;46102;39.012;-7.064;2023-02-10T02:44:33;99858.66;;;7.53;62.64
60240;BME280;46102;39.012;-7.064;2023-02-10T02:46:56;99858.09;;;7.51;62.35
60240;BME280;46102;39.012;-7.064;2023-02-10T02:56:37;99845.81;;;7.54;62.34
60240;BME280;46102;39.012;-7.064;2023-02-10T03:00:46;99838.44;;;7.54;62.44
60240;BME280;46102;39.012;-7.064;2023-02-10T03:02:47;99833.53;;;7.56;62.45
60240;BME280;46102;39.012;-7.064;2023-02-10T03:04:48;99823.41;;;7.51;62.82
60240;BME280;46102;39.012;-7.064;2023-02-10T03:06:49;99825.03;;;7.47;62.52
60240;BME280;46102;39.012;-7.064;2023-02-10T03:08:50;99826.13;;;7.41;63.08
60240;BME280;46102;39.012;-7.064;2023-02-10T03:10:51;99828.88;;;7.46;62.68
60240;BME280;46102;39.012;-7.064;2023-02-10T03:12:52;99832.94;;;7.39;62.84
60240;BME280;46102;39.012;-7.064;2023-02-10T03:14:53;99835.13;;;7.42;62.46
60240;BME280;46102;39.012;-7.064;2023-02-10T03:16:53;99837.84;;;7.42;62.74
60240;BME280;46102;39.012;-7.064;2023-02-10T03:18:54;99840.28;;;7.38;63.35
60240;BME280;46102;39.012;-7.064;2023-02-10T03:20:55;99834.25;;;7.36;63.17
60240;BME280;46102;39.012;-7.064;2023-02-10T03:22:56;99836.16;;;7.36;62.99
60240;BME280;46102;39.012;-7.064;2023-02-10T03:24:57;99833.19;;;7.37;63.31
60240;BME280;46102;39.012;-7.064;2023-02-10T03:26:57;99831.81;;;7.35;62.49
60240;BME280;46102;39.012;-7.064;2023-02-10T03:28:58;99840.81;;;7.35;62.63
60240;BME280;46102;39.012;-7.064;2023-02-10T03:31:03;99834.81;;;7.33;62.58
60240;BME280;46102;39.012;-7.064;2023-02-10T03:33:04;99833.72;;;7.34;63.20
60240;BME280;46102;39.012;-7.064;2023-02-10T03:35:05;99831.81;;;7.35;63.17
60240;BME280;46102;39.012;-7.064;2023-02-10T03:37:06;99834.25;;;7.31;63.11
60240;BME280;46102;39.012;-7.064;2023-02-10T03:39:07;99832.06;;;7.33;62.79
60240;BME280;46102;39.012;-7.064;2023-02-10T03:41:08;99838.06;;;7.30;63.14
60240;BME280;46102;39.012;-7.064;2023-02-10T03:43:09;99835.59;;;7.28;62.88
60240;BME280;46102;39.012;-7.064;2023-02-10T03:45:10;99828.19;;;7.24;63.35
60240;BME280;46102;39.012;-7.064;2023-02-10T03:47:11;99825.44;;;7.19;62.93
60240;BME280;46102;39.012;-7.064;2023-02-10T03:49:12;99827.88;;;7.15;62.90
60240;BME280;46102;39.012;-7.064;2023-02-10T03:51:13;99822.66;;;7.14;63.37
60240;BME280;46102;39.012;-7.064;2023-02-10T03:53:14;99824.31;;;7.09;63.59
60240;BME280;46102;39.012;-7.064;2023-02-10T03:55:16;99825.38;;;7.08;63.66
60240;BME280;46102;39.012;-7.064;2023-02-10T03:57:19;99822.09;;;7.06;63.43
60240;BME280;46102;39.012;-7.064;2023-02-10T03:59:20;99822.94;;;7.07;63.73
60240;BME280;46102;39.012;-7.064;2023-02-10T04:01:21;99822.66;;;7.08;63.48
60240;BME280;46102;39.012;-7.064;2023-02-10T04:03:22;99824.53;;;7.03;63.93
60240;BME280;46102;39.012;-7.064;2023-02-10T04:05:23;99829.72;;;7.04;63.52
60240;BME280;46102;39.012;-7.064;2023-02-10T04:07:24;99834.34;;;7.04;63.91
60240;BME280;46102;39.012;-7.064;2023-02-10T04:09:25;99831.06;;;7.02;63.48
60240;BME280;46102;39.012;-7.064;2023-02-10T04:11:25;99835.94;;;7.00;63.53
60240;BME280;46102;39.012;-7.064;2023-02-10T04:13:26;99831.03;;;6.97;63.62
60240;BME280;46102;39.012;-7.064;2023-02-10T04:15:27;99838.13;;;6.98;63.74
60240;BME280;46102;39.012;-7.064;2023-02-10T04:17:28;99841.69;;;6.98;63.40
60240;BME280;46102;39.012;-7.064;2023-02-10T04:19:28;99840.25;;;6.91;64.09
60240;BME280;46102;39.012;-7.064;2023-02-10T04:21:29;99836.97;;;6.88;64.15
60240;BME280;46102;39.012;-7.064;2023-02-10T04:23:30;99845.16;;;6.88;64.06
60240;BME280;46102;39.012;-7.064;2023-02-10T04:25:31;99854.69;;;6.86;64.21
60240;BME280;46102;39.012;-7.064;2023-02-10T04:27:33;99848.09;;;6.82;64.64
60240;BME280;46102;39.012;-7.064;2023-02-10T04:29:34;99859.84;;;6.82;64.72
60240;BME280;46102;39.012;-7.064;2023-02-10T04:31:40;99875.59;;;6.75;64.70
60240;BME280;46102;39.012;-7.064;2023-02-10T04:33:40;99888.94;;;6.72;64.69
60240;BME280;46102;39.012;-7.064;2023-02-10T04:35:41;99876.44;;;6.76;64.86
60240;BME280;46102;39.012;-7.064;2023-02-10T04:37:44;99887.81;;;6.67;65.06
60240;BME280;46102;39.012;-7.064;2023-02-10T04:39:45;99885.81;;;6.58;65.65
60240;BME280;46102;39.012;-7.064;2023-02-10T04:41:46;99875.41;;;6.55;65.59
60240;BME280;46102;39.012;-7.064;2023-02-10T04:43:46;99882.47;;;6.51;65.77
60240;BME280;46102;39.012;-7.064;2023-02-10T04:45:47;99879.47;;;6.52;65.86
60240;BME280;46102;39.012;-7.064;2023-02-10T04:47:48;99886.53;;;6.48;65.93
60240;BME280;46102;39.012;-7.064;2023-02-10T04:49:49;99885.16;;;6.45;65.96
60240;BME280;46102;39.012;-7.064;2023-02-10T04:51:49;99884.56;;;6.43;66.32
60240;BME280;46102;39.012;-7.064;2023-02-10T04:53:50;99885.41;;;6.44;66.34
60240;BME280;46102;39.012;-7.064;2023-02-10T04:55:51;99879.44;;;6.47;65.79
60240;BME280;46102;39.012;-7.064;2023-02-10T04:57:52;99880.81;;;6.50;66.27
60240;BME280;46102;39.012;-7.064;2023-02-10T04:59:52;99885.16;;;6.45;66.13
60240;BME280;46102;39.012;-7.064;2023-02-10T05:01:53;99878.88;;;6.45;65.79
60240;BME280;46102;39.012;-7.064;2023-02-10T05:03:54;99875.63;;;6.48;65.96
60240;BME280;46102;39.012;-7.064;2023-02-10T05:05:55;99882.16;;;6.47;66.13
60240;BME280;46102;39.012;-7.064;2023-02-10T05:07:55;99884.66;;;6.49;65.97
60240;BME280;46102;39.012;-7.064;2023-02-10T05:09:56;99882.16;;;6.47;65.59
60240;BME280;46102;39.012;-7.064;2023-02-10T05:11:57;99877.25;;;6.44;65.97
60240;BME280;46102;39.012;-7.064;2023-02-10T05:13:58;99882.13;;;6.42;65.91
60240;BME280;46102;39.012;-7.064;2023-02-10T05:15:59;99882.94;;;6.42;65.91
60240;BME280;46102;39.012;-7.064;2023-02-10T05:18:00;99883.44;;;6.39;65.70
60240;BME280;46102;39.012;-7.064;2023-02-10T05:20:01;99878.75;;;6.35;66.15
60240;BME280;46102;39.012;-7.064;2023-02-10T05:22:02;99886.66;;;6.31;66.51
60240;BME280;46102;39.012;-7.064;2023-02-10T05:24:03;99887.47;;;6.32;66.60
60240;BME280;46102;39.012;-7.064;2023-02-10T05:26:04;99883.09;;;6.31;66.68
60240;BME280;46102;39.012;-7.064;2023-02-10T05:28:05;99878.47;;;6.31;66.62
60240;BME280;46102;39.012;-7.064;2023-02-10T05:30:06;99889.66;;;6.35;66.60
60240;BME280;46102;39.012;-7.064;2023-02-10T05:32:09;99883.44;;;6.39;66.24
60240;BME280;46102;39.012;-7.064;2023-02-10T05:34:10;99887.25;;;6.38;66.39
60240;BME280;46102;39.012;-7.064;2023-02-10T05:36:11;99881.81;;;6.38;66.56
60240;BME280;46102;39.012;-7.064;2023-02-10T05:38:12;99884.28;;;6.40;66.60
60240;BME280;46102;39.012;-7.064;2023-02-10T05:40:15;99879.41;;;6.42;66.71
60240;BME280;46102;39.012;-7.064;2023-02-10T05:42:16;99885.16;;;6.45;66.57
60240;BME280;46102;39.012;-7.064;2023-02-10T05:44:17;99880.00;;;6.49;66.47
60240;BME280;46102;39.012;-7.064;2023-02-10T05:46:18;99880.59;;;6.51;66.70
60240;BME280;46102;39.012;-7.064;2023-02-10T05:48:18;99880.06;;;6.54;66.50
60240;BME280;46102;39.012;-7.064;2023-02-10T05:50:19;99877.66;;;6.58;66.33
60240;BME280;46102;39.012;-7.064;2023-02-10T05:52:20;99885.03;;;6.62;66.07
60240;BME280;46102;39.012;-7.064;2023-02-10T05:54:21;99885.63;;;6.64;66.04
60240;BME280;46102;39.012;-7.064;2023-02-10T05:56:22;99881.25;;;6.68;65.81
60240;BME280;46102;39.012;-7.064;2023-02-10T05:58:22;99884.56;;;6.71;66.15
60240;BME280;46102;39.012;-7.064;2023-02-10T06:00:23;99887.03;;;6.72;65.48
60240;BME280;46102;39.012;-7.064;2023-02-10T06:02:24;99890.56;;;6.73;65.97
60240;BME280;46102;39.012;-7.064;2023-02-10T06:04:25;99890.56;;;6.73;65.98
60240;BME280;46102;39.012;-7.064;2023-02-10T06:06:26;99887.28;;;6.71;66.31
60240;BME280;46102;39.012;-7.064;2023-02-10T06:08:26;99895.22;;;6.72;66.26
60240;BME280;46102;39.012;-7.064;2023-02-10T06:10:27;99894.97;;;6.74;65.97
60240;BME280;46102;39.012;-7.064;2023-02-10T06:12:28;99902.88;;;6.75;66.11
60240;BME280;46102;39.012;-7.064;2023-02-10T06:14:29;99896.63;;;6.80;65.84
60240;BME280;46102;39.012;-7.064;2023-02-10T06:16:30;99897.75;;;6.84;65.97
60240;BME280;46102;39.012;-7.064;2023-02-10T06:18:31;99907.53;;;6.80;65.57
60240;BME280;46102;39.012;-7.064;2023-02-10T06:20:32;99901.28;;;6.79;65.64
60240;BME280;46102;39.012;-7.064;2023-02-10T06:22:32;99906.22;;;6.82;65.65
60240;BME280;46102;39.012;-7.064;2023-02-10T06:24:33;99904.31;;;6.83;65.17
60240;BME280;46102;39.012;-7.064;2023-02-10T06:26:34;99913.84;;;6.80;65.44
60240;BME280;46102;39.012;-7.064;2023-02-10T06:28:35;99911.91;;;6.76;65.61
60240;BME280;46102;39.012;-7.064;2023-02-10T06:30:36;99918.66;;;6.73;65.88
60240;BME280;46102;39.012;-7.064;2023-02-10T06:32:37;99915.41;;;6.71;65.48
60240;BME280;46102;39.012;-7.064;2023-02-10T06:34:37;99914.84;;;6.69;65.50
60240;BME280;46102;39.012;-7.064;2023-02-10T06:36:38;99910.44;;;6.68;65.89
60240;BME280;46102;39.012;-7.064;2023-02-10T06:38:39;99907.94;;;6.61;65.66
60240;BME280;46102;39.012;-7.064;2023-02-10T06:40:40;99915.50;;;6.54;65.68
60240;BME280;46102;39.012;-7.064;2023-02-10T06:42:41;99925.53;;;6.49;65.76
60240;BME280;46102;39.012;-7.064;2023-02-10T06:44:42;99922.25;;;6.46;65.87
60240;BME280;46102;39.012;-7.064;2023-02-10T06:46:43;99920.00;;;6.43;65.80
60240;BME280;46102;39.012;-7.064;2023-02-10T06:48:43;99923.59;;;6.44;66.00
60240;BME280;46102;39.012;-7.064;2023-02-10T06:50:44;99925.75;;;6.42;66.07
60240;BME280;46102;39.012;-7.064;2023-02-10T06:52:46;99931.44;;;6.40;66.18
60240;BME280;46102;39.012;-7.064;2023-02-10T06:54:47;99924.03;;;6.36;66.37
60240;BME280;46102;39.012;-7.064;2023-02-10T06:56:48;99940.34;;;6.31;66.23
60240;BME280;46102;39.012;-7.064;2023-02-10T06:58:48;99941.16;;;6.31;66.14
60240;BME280;46102;39.012;-7.064;2023-02-10T07:00:49;99936.53;;;6.32;66.08
60240;BME280;46102;39.012;-7.064;2023-02-10T07:02:50;99943.06;;;6.31;66.32
60240;BME280;46102;39.012;-7.064;2023-02-10T07:04:51;99945.47;;;6.27;66.40
60240;BME280;46102;39.012;-7.064;2023-02-10T07:06:51;99950.09;;;6.27;66.48
60240;BME280;46102;39.012;-7.064;2023-02-10T07:08:52;99948.75;;;6.29;66.36
60240;BME280;46102;39.012;-7.064;2023-02-10T07:10:53;99956.88;;;6.24;66.50
60240;BME280;46102;39.012;-7.064;2023-02-10T07:12:54;99956.31;;;6.22;66.55
60240;BME280;46102;39.012;-7.064;2023-02-10T07:14:54;99955.81;;;6.25;66.59
60240;BME280;46102;39.012;-7.064;2023-02-10T07:16:55;99957.19;;;6.28;66.49
60240;BME280;46102;39.012;-7.064;2023-02-10T07:18:56;99963.16;;;6.24;66.49
60240;BME280;46102;39.012;-7.064;2023-02-10T07:20:57;99965.38;;;6.28;66.44
60240;BME280;46102;39.012;-7.064;2023-02-10T07:22:58;99961.56;;;6.29;66.42
60240;BME280;46102;39.012;-7.064;2023-02-10T07:24:58;99966.94;;;6.23;66.54
60240;BME280;46102;39.012;-7.064;2023-02-10T07:26:59;99963.97;;;6.25;66.38
60240;BME280;46102;39.012;-7.064;2023-02-10T07:29:00;99970.81;;;6.28;66.48
60240;BME280;46102;39.012;-7.064;2023-02-10T07:31:01;99968.91;;;6.28;66.42
60240;BME280;46102;39.012;-7.064;2023-02-10T07:33:02;99970.56;;;6.29;66.28
60240;BME280;46102;39.012;-7.064;2023-02-10T07:35:04;99973.06;;;6.31;66.22
60240;BME280;46102;39.012;-7.064;2023-02-10T07:37:04;99970.06;;;6.32;66.47
60240;BME280;46102;39.012;-7.064;2023-02-10T07:39:05;99975.00;;;6.35;66.03
60240;BME280;46102;39.012;-7.064;2023-02-10T07:41:07;99976.06;;;6.34;66.09
60240;BME280;46102;39.012;-7.064;2023-02-10T07:43:08;99983.47;;;6.39;66.23
60240;BME280;46102;39.012;-7.064;2023-02-10T07:45:17;99978.16;;;6.49;65.88
60240;BME280;46102;39.012;-7.064;2023-02-10T07:47:18;99975.69;;;6.47;65.79
60240;BME280;46102;39.012;-7.064;2023-02-10T07:49:19;99995.38;;;6.55;65.76
60240;BME280;46102;39.012;-7.064;2023-02-10T07:51:20;99988.91;;;6.61;65.31
60240;BME280;46102;39.012;-7.064;2023-02-10T07:53:21;99982.75;;;6.71;65.20
60240;BME280;46102;39.012;-7.064;2023-02-10T07:55:22;99986.72;;;6.85;64.67
60240;BME280;46102;39.012;-7.064;2023-02-10T07:57:23;99981.41;;;7.00;64.54
60240;BME280;46102;39.012;-7.064;2023-02-10T07:59:24;99987.28;;;7.14;64.00
60240;BME280;46102;39.012;-7.064;2023-02-10T08:01:25;99992.69;;;7.41;63.39
60240;BME280;46102;39.012;-7.064;2023-02-10T08:03:25;99991.25;;;7.76;62.52
60240;BME280;46102;39.012;-7.064;2023-02-10T08:05:26;99999.88;;;7.95;61.43
60240;BME280;46102;39.012;-7.064;2023-02-10T08:07:28;100003.97;;;7.98;60.80
60240;BME280;46102;39.012;-7.064;2023-02-10T08:09:29;99990.59;;;8.01;60.61
60240;BME280;46102;39.012;-7.064;2023-02-10T08:11:30;99999.63;;;8.02;61.08
60240;BME280;46102;39.012;-7.064;2023-02-10T08:13:32;99986.78;;;8.07;60.54
60240;BME280;46102;39.012;-7.064;2023-02-10T08:15:33;99997.50;;;8.19;60.20
60240;BME280;46102;39.012;-7.064;2023-02-10T08:17:34;99999.78;;;8.38;60.20
60240;BME280;46102;39.012;-7.064;2023-02-10T08:19:37;99997.97;;;8.53;59.28
60240;BME280;46102;39.012;-7.064;2023-02-10T08:21:38;100002.91;;;8.67;58.94
60240;BME280;46102;39.012;-7.064;2023-02-10T08:23:38;99998.53;;;8.71;58.32
60240;BME280;46102;39.012;-7.064;2023-02-10T08:25:40;99998.84;;;8.80;58.09
60240;BME280;46102;39.012;-7.064;2023-02-10T08:27:40;99998.31;;;8.93;58.31
60240;BME280;46102;39.012;-7.064;2023-02-10T08:29:41;100002.72;;;8.99;57.32
60240;BME280;46102;39.012;-7.064;2023-02-10T08:31:42;100001.91;;;8.99;57.67
60240;BME280;46102;39.012;-7.064;2023-02-10T08:33:43;99996.69;;;8.97;57.24
60240;BME280;46102;39.012;-7.064;2023-02-10T08:35:43;99992.03;;;9.03;57.83
60240;BME280;46102;39.012;-7.064;2023-02-10T08:37:45;99988.22;;;9.09;57.03
60240;BME280;46102;39.012;-7.064;2023-02-10T08:39:45;99990.41;;;9.22;56.93
60240;BME280;46102;39.012;-7.064;2023-02-10T08:41:46;99993.44;;;9.26;56.36
60240;BME280;46102;39.012;-7.064;2023-02-10T08:43:47;99994.25;;;9.31;56.50
60240;BME280;46102;39.012;-7.064;2023-02-10T08:45:48;99991.50;;;9.36;56.69
60240;BME280;46102;39.012;-7.064;2023-02-10T08:47:49;99993.44;;;9.46;55.85
60240;BME280;46102;39.012;-7.064;2023-02-10T08:49:50;99998.34;;;9.59;56.17
60240;BME280;46102;39.012;-7.064;2023-02-10T08:51:52;99994.22;;;9.72;55.31
60240;BME280;46102;39.012;-7.064;2023-02-10T08:53:53;99995.03;;;9.78;54.87
60240;BME280;46102;39.012;-7.064;2023-02-10T08:55:57;100008.16;;;9.91;54.49
60240;BME280;46102;39.012;-7.064;2023-02-10T08:57:58;100008.47;;;9.85;54.24
60240;BME280;46102;39.012;-7.064;2023-02-10T09:00:00;100001.03;;;9.95;54.02
60240;BME280;46102;39.012;-7.064;2023-02-10T09:02:01;100000.97;;;10.11;54.29
60240;BME280;46102;39.012;-7.064;2023-02-10T09:04:02;99996.28;;;10.21;53.55
60240;BME280;46102;39.012;-7.064;2023-02-10T09:06:03;99998.19;;;10.36;52.71
60240;BME280;46102;39.012;-7.064;2023-02-10T09:08:04;100009.16;;;10.36;52.65
60240;BME280;46102;39.012;-7.064;2023-02-10T09:10:05;100005.00;;;10.44;52.70
60240;BME280;46102;39.012;-7.064;2023-02-10T09:12:06;100003.63;;;10.52;52.37
60240;BME280;46102;39.012;-7.064;2023-02-10T09:14:08;100015.03;;;10.69;52.01
60240;BME280;46102;39.012;-7.064;2023-02-10T09:16:09;100012.75;;;10.87;51.40
60240;BME280;46102;39.012;-7.064;2023-02-10T09:18:10;100018.41;;;11.00;50.97
60240;BME280;46102;39.012;-7.064;2023-02-10T09:20:12;100017.03;;;11.03;50.79
60240;BME280;46102;39.012;-7.064;2023-02-10T09:22:13;100020.25;;;11.15;50.41
60240;BME280;46102;39.012;-7.064;2023-02-10T09:24:15;100026.50;;;11.26;50.28
60240;BME280;46102;39.012;-7.064;2023-02-10T09:26:16;100017.63;;;11.39;49.69
60240;BME280;46102;39.012;-7.064;2023-02-10T09:28:17;100015.69;;;11.40;49.14
60240;BME280;46102;39.012;-7.064;2023-02-10T09:30:18;100016.44;;;11.51;49.30
60240;BME280;46102;39.012;-7.064;2023-02-10T09:32:18;100016.78;;;11.68;49.37
60240;BME280;46102;39.012;-7.064;2023-02-10T09:34:19;100024.63;;;11.85;49.20
60240;BME280;46102;39.012;-7.064;2023-02-10T09:36:20;100031.53;;;11.82;48.33
60240;BME280;46102;39.012;-7.064;2023-02-10T09:38:21;100033.63;;;11.61;48.09
60240;BME280;46102;39.012;-7.064;2023-02-10T09:40:26;100032.72;;;11.71;48.64
60240;BME280;46102;39.012;-7.064;2023-02-10T09:44:42;100038.38;;;11.85;47.64
60240;BME280;46102;39.012;-7.064;2023-02-10T09:53:30;100037.84;;;12.12;47.12
60240;BME280;46102;39.012;-7.064;2023-02-10T09:55:39;100027.56;;;12.23;47.12
60240;BME280;46102;39.012;-7.064;2023-02-10T09:57:44;100027.84;;;12.45;46.33
60240;BME280;46102;39.012;-7.064;2023-02-10T09:59:50;100030.00;;;12.48;45.95
60240;BME280;46102;39.012;-7.064;2023-02-10T10:01:57;100030.34;;;12.42;45.86
60240;BME280;46102;39.012;-7.064;2023-02-10T10:04:05;100020.19;;;12.18;46.04
60240;BME280;46102;39.012;-7.064;2023-02-10T10:06:43;100026.88;;;12.36;46.13
60240;BME280;46102;39.012;-7.064;2023-02-10T10:11:17;100015.03;;;12.98;45.91
60240;BME280;46102;39.012;-7.064;2023-02-10T10:13:25;100008.69;;;13.16;45.06
60240;BME280;46102;39.012;-7.064;2023-02-10T10:15:34;100013.75;;;13.09;44.54
60240;BME280;46102;39.012;-7.064;2023-02-10T10:24:24;100019.34;;;12.66;45.31
60240;BME280;46102;39.012;-7.064;2023-02-10T10:31:07;100024.63;;;12.81;45.03
60240;BME280;46102;39.012;-7.064;2023-02-10T10:33:24;100015.84;;;12.79;45.06
60240;BME280;46102;39.012;-7.064;2023-02-10T10:35:35;100022.81;;;12.71;44.98
60240;BME280;46102;39.012;-7.064;2023-02-10T10:37:39;100018.59;;;12.98;44.88
60240;BME280;46102;39.012;-7.064;2023-02-10T10:39:42;100016.66;;;12.99;44.11
60240;BME280;46102;39.012;-7.064;2023-02-10T10:41:44;100017.56;;;13.13;43.87
60240;BME280;46102;39.012;-7.064;2023-02-10T10:43:54;100016.59;;;13.04;43.82
60240;BME280;46102;39.012;-7.064;2023-02-10T10:46:01;100015.53;;;13.19;43.90
60240;BME280;46102;39.012;-7.064;2023-02-10T10:48:15;100015.94;;;13.31;43.41
60240;BME280;46102;39.012;-7.064;2023-02-10T10:50:19;100023.22;;;13.41;42.96
60240;BME280;46102;39.012;-7.064;2023-02-10T10:52:28;100009.22;;;13.18;43.07
60240;BME280;46102;39.012;-7.064;2023-02-10T10:54:30;100007.72;;;13.26;42.42
60240;BME280;46102;39.012;-7.064;2023-02-10T10:56:36;100011.31;;;13.26;42.61
60240;BME280;46102;39.012;-7.064;2023-02-10T10:58:42;100006.16;;;13.39;42.97
60240;BME280;46102;39.012;-7.064;2023-02-10T11:00:53;100018.19;;;13.62;43.14
60240;BME280;46102;39.012;-7.064;2023-02-10T11:03:04;100010.44;;;13.78;42.59
60240;BME280;46102;39.012;-7.064;2023-02-10T11:05:11;100009.00;;;13.66;42.35
60240;BME280;46102;39.012;-7.064;2023-02-10T11:07:19;100011.03;;;13.61;41.65
60240;BME280;46102;39.012;-7.064;2023-02-10T11:09:32;100014.84;;;13.65;41.72
60240;BME280;46102;39.012;-7.064;2023-02-10T11:11:40;100002.06;;;13.69;41.75
60240;BME280;46102;39.012;-7.064;2023-02-10T11:13:50;99997.28;;;13.74;41.70
60240;BME280;46102;39.012;-7.064;2023-02-10T11:16:09;99997.16;;;13.14;42.79
60240;BME280;46102;39.012;-7.064;2023-02-10T11:18:20;99990.38;;;13.06;43.17
60240;BME280;46102;39.012;-7.064;2023-02-10T11:20:26;99998.34;;;13.08;43.79
60240;BME280;46102;39.012;-7.064;2023-02-10T11:22:27;99979.44;;;13.20;42.88
60240;BME280;46102;39.012;-7.064;2023-02-10T11:24:32;99984.66;;;13.54;43.21
60240;BME280;46102;39.012;-7.064;2023-02-10T11:26:33;99971.22;;;13.67;41.99
60240;BME280;46102;39.012;-7.064;2023-02-10T11:28:34;99962.25;;;13.89;41.71
60240;BME280;46102;39.012;-7.064;2023-02-10T11:30:38;99971.97;;;14.00;41.25
60240;BME280;46102;39.012;-7.064;2023-02-10T11:32:40;99964.13;;;14.07;40.21